Overview Statistics Trail Chart Weather Telemetry Raw packets
 

This is the latest recevied weather packets stored in our database for station/object K7CTM. If no packets are shown the sender has not sent any weather packets the latest 10 day(s).

<< 11 12 13 14 15 16 17 >>
Time Temp. Humidity Pressure Rain* Wind** Luminosity Snow
1788537404 22.22° C 31% 1020 hPa 0 mm - 433 W/m² -
1788537103 22.78° C 31% 1019.8 hPa 0 mm - 421 W/m² -
1788536802 21.11° C 31% 1020.3 hPa 0 mm - 404 W/m² -
1788536502 20.56° C 33% 1020.3 hPa 0 mm - 387 W/m² -
1788536198 19.44° C 34% 1020.3 hPa 0 mm - 370 W/m² -
1788535898 18.89° C 36% 1020.3 hPa 0 mm - 325 W/m² -
1788535595 17.22° C 39% 1020.3 hPa 0 mm - 339 W/m² -
1788535290 16.11° C 43% 1020.5 hPa 0 mm - 322 W/m² -
1788534985 16.11° C 44% 1020.2 hPa 0 mm - 305 W/m² -
1788534683 16.11° C 44% 1020.3 hPa 0 mm - 287 W/m² -
1788534379 15.56° C 44% 1020.3 hPa 0 mm - 267 W/m² -
1788534074 16.67° C 41% 1020.5 hPa 0 mm - 238 W/m² -
1788533773 17.22° C 41% 1020.2 hPa 0 mm - 231 W/m² -
1788533468 16.11° C 42% 1020.4 hPa 0 mm - 217 W/m² -
1788533164 15° C 45% 1020.3 hPa 0 mm - 202 W/m² -
1788532859 13.89° C 48% 1020.4 hPa 0 mm - 188 W/m² -
1788532555 13.89° C 49% 1020.3 hPa 0 mm - 173 W/m² -
1788532246 13.89° C 49% 1020.2 hPa 0 mm - 163 W/m² -
1788531943 14.44° C 48% 1020.4 hPa 0 mm - 153 W/m² -
1788531638 13.89° C 49% 1020.2 hPa 0 mm - 138 W/m² -
1788531338 12.78° C 50% 1020.2 hPa 0 mm - 129 W/m² -
1788531033 11.67° C 55% 1020.2 hPa 0 mm - 37 W/m² -
1788530733 11.67° C 56% 1020.2 hPa 0 mm - 107 W/m² -
1788530428 11.11° C 57% 1020 hPa 0 mm - 96 W/m² -
1788530127 11.11° C 59% 1020 hPa 0 mm - 84 W/m² -

* Rain latest hour (hover to see other rain measurements)
** Current wind speed in m/s (hover to see current wind gust speed)